Deer Lake, Canada
Current Conditions -  °F | °C
As of 8:00 PM on Saturday 20 Dec 2014 (Local Time) from CYDF Reporting Station
Overcast Overcast  
Wind Chill: 19°   Ceiling: 2100
Heat Index: 25°   Visibility: 15mi
Dew Point: 21°   Wind: 5mph
Humidity: 86%   Direction: 20°NNE
Pressure: 30.34"   Gusts: NA
Location:  49.21°N, 57.4°W
Report Text: CYDF 202300Z 02004KT 15SM OVC021 M04/M06 A3034 RMK SC8 SLP275
Loading
Personal Weather Stations






























Interactive Weather Map New forecast layout! Learn more

10-Day Weather Forecast

Advertisements
Track Severe Weather on mobile